Alger, Ohio
Current Conditions -  °F | °C
As of 9:53 PM on Sunday 23 Nov 2014 (Local Time) from KAOH Reporting Station
Light Rain Light Rain  
Wind Chill: 54°   Ceiling: 1600
Heat Index: 54°   Visibility: 6mi
Dew Point: 51°   Wind: 22mph
Humidity: 90%   Direction: 140°SE
Pressure: 29.3"   Gusts: 35mph
Location:  40.71°N, 83.84°W
Report Text: KAOH 240253Z AUTO 14019G30KT 6SM -RA BR FEW010 BKN016 OVC050 12/11 A2930 RMK AO2 PK WND 15032/0211 SLP920 P0008 60020 T01220106 58061
Loading
Personal Weather Stations






























Interactive Weather Map New forecast layout! Learn more

10-Day Weather Forecast

Advertisements
Track Severe Weather on mobile